Time;durP1;ratioP1;P1;durP2;ratioP2;P2;SDS_P1;SDS_P2;PMS_P1;PMS_P2;Temp;Humidity;BMP_temperature;BMP_pressure;BME280_temperature;BME280_humidity;BME280_pressure;Samples;Min_cycle;Max_cycle;Signal;HPM_P1;HPM_P2
2021/03/10 00:01:53;;;;;;;19.20;15.70;;;;;;;5.12;60.75;96723.56;4923196;29;20059;-77
2021/03/10 00:04:20;;;;;;;20.45;15.45;;;;;;;5.14;60.95;96731.16;4922482;29;20060;-77
2021/03/10 00:06:47;;;;;;;20.88;15.55;;;;;;;5.12;61.13;96725.31;4922892;29;20052;-76
2021/03/10 00:09:14;;;;;;;22.15;16.48;;;;;;;5.07;61.60;96722.34;4923552;29;20055;-76
2021/03/10 00:11:41;;;;;;;19.63;15.70;;;;;;;5.04;61.59;96723.44;4923054;29;20051;-77
2021/03/10 00:14:07;;;;;;;20.55;16.30;;;;;;;5.03;61.97;96728.75;4923069;29;20056;-77
2021/03/10 00:16:34;;;;;;;22.27;16.85;;;;;;;5.02;61.87;96721.97;4922673;29;20526;-76
2021/03/10 00:19:01;;;;;;;20.00;14.68;;;;;;;5.02;62.19;96727.94;4923074;29;20063;-75
2021/03/10 00:21:27;;;;;;;21.02;15.43;;;;;;;4.98;61.95;96721.44;4922426;29;20052;-77
2021/03/10 00:23:54;;;;;;;19.77;15.80;;;;;;;4.98;62.00;96718.03;4922888;29;20067;-76
2021/03/10 00:26:21;;;;;;;19.27;15.30;;;;;;;4.96;62.52;96728.50;4922222;29;20438;-77
2021/03/10 00:28:48;;;;;;;19.23;14.80;;;;;;;4.98;62.34;96728.38;4921703;29;20063;-77
2021/03/10 00:31:14;;;;;;;22.13;15.65;;;;;;;4.98;62.33;96730.97;4922244;29;20526;-76
2021/03/10 00:33:41;;;;;;;20.65;15.30;;;;;;;4.99;62.41;96727.44;4922194;29;20490;-77
2021/03/10 00:36:08;;;;;;;24.67;16.25;;;;;;;4.98;62.57;96730.97;4922096;29;20052;-76
2021/03/10 00:38:35;;;;;;;20.92;15.85;;;;;;;4.98;62.60;96730.97;4922157;29;20397;-77
2021/03/10 00:41:02;;;;;;;21.90;16.30;;;;;;;4.99;62.66;96740.38;4922254;29;20151;-77
2021/03/10 00:43:29;;;;;;;20.33;15.32;;;;;;;4.95;63.27;96738.03;4922231;29;20060;-77
2021/03/10 00:45:56;;;;;;;20.85;16.20;;;;;;;4.93;63.12;96733.97;4922174;29;20056;-77
2021/03/10 00:48:23;;;;;;;22.08;15.93;;;;;;;4.92;62.99;96738.34;4922105;29;20080;-77
2021/03/10 00:50:49;;;;;;;21.00;16.23;;;;;;;4.92;63.46;96738.34;4921732;29;20530;-77
2021/03/10 00:53:16;;;;;;;21.17;16.35;;;;;;;4.94;63.49;96731.25;4921970;29;20048;-77
2021/03/10 00:55:42;;;;;;;21.45;16.17;;;;;;;4.94;63.67;96736.44;4922203;29;20052;-77
2021/03/10 00:58:09;;;;;;;22.42;16.02;;;;;;;4.97;63.11;96742.28;4922591;29;20086;-78
2021/03/10 01:00:36;;;;;;;22.02;15.90;;;;;;;4.97;63.36;96744.88;4922431;29;20052;-78
2021/03/10 01:03:03;;;;;;;20.75;16.42;;;;;;;4.97;63.43;96735.34;4921219;29;20139;-78
2021/03/10 01:05:46;;;;;;;;;;;;;;;5.00;63.56;96734.22;4923698;29;20048;-76
2021/03/10 01:08:12;;;;;;;19.92;14.98;;;;;;;4.98;63.26;96736.13;4920278;29;19923;-76
2021/03/10 01:10:40;;;;;;;24.73;17.75;;;;;;;4.95;63.16;96735.47;4919478;29;20060;-76
2021/03/10 01:13:06;;;;;;;22.13;17.35;;;;;;;4.93;63.37;96734.78;4920394;29;20078;-77
2021/03/10 01:15:33;;;;;;;22.63;16.60;;;;;;;4.90;63.89;96735.09;4920560;29;20412;-76
2021/03/10 01:18:00;;;;;;;22.60;17.42;;;;;;;4.86;64.17;96733.75;4921034;29;20056;-76
2021/03/10 01:20:28;;;;;;;22.38;17.13;;;;;;;4.83;64.39;96726.28;4920575;29;20054;-77
2021/03/10 01:22:54;;;;;;;21.65;16.27;;;;;;;4.82;64.06;96721.25;4919799;29;20048;-76
2021/03/10 01:25:21;;;;;;;24.25;16.42;;;;;;;4.79;64.14;96729.25;4925595;29;20056;-78
2021/03/10 01:27:48;;;;;;;21.55;16.65;;;;;;;4.78;64.60;96725.88;4920041;29;20076;-78
2021/03/10 01:30:16;;;;;;;22.33;17.08;;;;;;;4.78;64.59;96725.06;4919460;29;20052;-76
2021/03/10 01:32:43;;;;;;;24.60;17.77;;;;;;;4.75;64.72;96721.00;4920210;29;20055;-76
2021/03/10 01:35:12;;;;;;;22.58;16.83;;;;;;;4.73;64.75;96721.13;4920557;29;20059;-77
2021/03/10 01:37:39;;;;;;;21.90;16.33;;;;;;;4.70;65.01;96725.75;4920342;29;20056;-78
2021/03/10 01:40:06;;;;;;;22.42;16.98;;;;;;;4.68;65.13;96727.69;4919592;29;20055;-76
2021/03/10 01:42:33;;;;;;;22.70;17.70;;;;;;;4.67;65.41;96723.47;4918831;29;20074;-77
2021/03/10 01:44:59;;;;;;;26.17;17.55;;;;;;;4.66;65.25;96716.69;4919892;29;20062;-78
2021/03/10 01:47:26;;;;;;;24.00;17.10;;;;;;;4.66;65.48;96727.03;4917962;29;20504;-76
2021/03/10 01:49:53;;;;;;;22.60;17.17;;;;;;;4.67;65.28;96718.31;4918462;29;20059;-76
2021/03/10 01:52:20;;;;;;;24.45;17.33;;;;;;;4.67;65.44;96726.06;4920158;29;20052;-78
2021/03/10 01:54:47;;;;;;;21.20;15.45;;;;;;;4.66;65.64;96721.88;4918513;29;20058;-76
2021/03/10 01:57:13;;;;;;;26.20;18.00;;;;;;;4.66;65.36;96721.88;4919144;29;20144;-76
2021/03/10 01:59:41;;;;;;;23.33;17.23;;;;;;;4.64;65.67;96718.59;4918992;29;20134;-76
2021/03/10 02:02:07;;;;;;;24.77;17.95;;;;;;;4.62;65.78;96715.34;4918586;29;20052;-77
2021/03/10 02:04:37;;;;;;;26.60;18.15;;;;;;;4.60;65.75;96717.25;4918036;29;20059;-76
2021/03/10 02:07:09;;;;;;;25.40;17.52;;;;;;;4.57;66.36;96720.09;4917615;29;20052;-76
2021/03/10 02:09:48;;;;;;;23.48;18.20;;;;;;;4.54;66.51;96719.44;4918259;29;20056;-77
2021/03/10 02:12:25;;;;;;;23.38;17.42;;;;;;;4.49;66.82;96720.81;4917812;29;20146;-77
2021/03/10 07:12:00;;;;;;;42.63;26.35;;;;;;;4.50;71.05;96877.44;5904907;23;20018;-81
2021/03/10 07:14:29;;;;;;;39.00;26.13;;;;;;;4.50;71.38;96875.69;4932244;29;20056;-79
2021/03/10 07:16:56;;;;;;;40.22;24.85;;;;;;;4.50;71.08;96877.44;4928873;29;20074;-79
2021/03/10 07:19:23;;;;;;;38.20;25.02;;;;;;;4.49;70.70;96876.63;4934109;29;20060;-80
2021/03/10 07:21:55;;;;;;;41.38;26.15;;;;;;;4.51;71.27;96879.88;4936007;29;20143;-80
2021/03/10 07:24:29;;;;;;;35.95;22.95;;;;;;;4.52;71.00;96875.53;4936003;29;20066;-81
2021/03/10 07:27:02;;;;;;;41.28;25.83;;;;;;;4.54;70.89;96884.78;4948293;29;20443;-82
2021/03/10 07:29:34;;;;;;;42.17;26.13;;;;;;;4.57;71.16;96898.38;4940874;29;20475;-82
2021/03/10 07:32:03;;;;;;;36.05;24.30;;;;;;;4.57;70.66;96891.44;4939284;29;20052;-82
2021/03/10 07:34:30;;;;;;;41.67;26.63;;;;;;;4.57;70.85;96898.38;4938188;29;20051;-82
2021/03/10 07:36:57;;;;;;;40.92;25.63;;;;;;;4.59;70.72;96901.63;4939185;29;20062;-82
2021/03/10 07:39:26;;;;;;;40.40;26.38;;;;;;;4.60;70.91;96903.28;4948234;29;20123;-82
2021/03/10 07:41:53;;;;;;;42.72;25.90;;;;;;;4.62;70.89;96907.34;4953998;29;20071;-82
2021/03/10 08:00:12;;;;;;;37.63;23.95;;;;;;;4.67;70.61;96914.69;5027874;23;20609;-82
2021/03/10 08:02:42;;;;;;;44.85;25.08;;;;;;;4.69;70.35;96915.38;4941225;29;20093;-81
2021/03/10 11:25:34;;;;;;;24.00;15.90;;;;;;;7.10;55.36;96889.28;5365820;23;20068;-78
2021/03/10 14:00:16;;;;;;;14.77;9.52;;;;;;;8.62;47.53;96793.94;4644274;23;20502;-77
2021/03/10 14:02:42;;;;;;;14.38;10.15;;;;;;;8.70;47.68;96792.28;4937958;29;20557;-78
2021/03/10 14:15:50;;;;;;;13.07;8.70;;;;;;;8.95;45.82;96778.25;5167632;23;20094;-78
2021/03/10 14:18:17;;;;;;;11.40;8.57;;;;;;;8.97;46.00;96788.50;4941549;29;20131;-77
2021/03/10 14:20:44;;;;;;;13.23;9.25;;;;;;;8.98;45.33;96780.50;4939036;29;20529;-75
2021/03/10 14:23:11;;;;;;;11.00;8.30;;;;;;;8.98;45.46;96775.31;4940726;29;20054;-77
2021/03/10 14:25:37;;;;;;;12.98;8.88;;;;;;;9.00;45.27;96773.34;4940443;29;20063;-78
2021/03/10 14:28:08;;;;;;;12.30;8.48;;;;;;;8.99;45.17;96776.94;4940036;29;20051;-78
2021/03/10 14:30:35;;;;;;;11.93;7.85;;;;;;;9.02;44.67;96766.19;4939839;29;20051;-76
2021/03/10 14:33:02;;;;;;;12.00;8.13;;;;;;;9.04;44.88;96768.63;4940241;29;20051;-78
2021/03/10 14:35:29;;;;;;;11.23;9.10;;;;;;;9.07;45.24;96763.91;4940835;29;20058;-78
2021/03/10 14:37:56;;;;;;;12.07;8.15;;;;;;;9.12;45.21;96765.19;4938894;29;20110;-78
2021/03/10 14:40:23;;;;;;;9.40;7.53;;;;;;;9.14;43.91;96769.25;4939323;29;20442;-75
2021/03/10 14:42:50;;;;;;;10.77;7.40;;;;;;;9.15;43.76;96770.06;4939283;29;20067;-76
2021/03/10 14:45:17;;;;;;;10.65;6.97;;;;;;;9.19;44.02;96771.34;4939893;29;20094;-77
2021/03/10 14:47:43;;;;;;;18.90;8.23;;;;;;;9.22;43.26;96773.59;4938670;29;20055;-77
2021/03/10 14:50:11;;;;;;;10.95;6.93;;;;;;;9.24;43.27;96766.44;4939722;29;20075;-78
2021/03/10 14:52:39;;;;;;;12.20;6.90;;;;;;;9.30;43.41;96770.97;4939261;29;20048;-78
2021/03/10 14:55:07;;;;;;;10.30;6.50;;;;;;;9.35;42.71;96775.69;4939889;29;20066;-79
2021/03/10 14:57:35;;;;;;;9.07;6.63;;;;;;;9.36;43.24;96766.88;4939568;29;20521;-77
2021/03/10 15:00:03;;;;;;;10.93;7.18;;;;;;;9.38;42.69;96776.16;4939537;29;20059;-77
2021/03/10 15:02:30;;;;;;;10.27;7.50;;;;;;;9.38;43.08;96776.16;4939263;29;20048;-78
2021/03/10 15:04:56;;;;;;;10.20;7.30;;;;;;;9.39;42.69;96777.78;4940015;29;20055;-76
2021/03/10 15:07:24;;;;;;;10.23;7.10;;;;;;;9.38;42.42;96780.53;4940091;29;20317;-78
2021/03/10 15:09:50;;;;;;;9.18;6.78;;;;;;;9.33;42.05;96773.22;4938865;29;20051;-78
2021/03/10 15:12:18;;;;;;;11.77;6.78;;;;;;;9.30;41.76;96767.56;4940386;29;20050;-78
2021/03/10 15:14:45;;;;;;;12.10;7.25;;;;;;;9.25;41.57;96770.69;4938904;29;20539;-79
2021/03/10 15:17:11;;;;;;;10.85;7.60;;;;;;;9.22;41.63;96776.22;4939874;29;20134;-78
2021/03/10 15:19:38;;;;;;;10.40;7.50;;;;;;;9.21;41.57;96772.00;4939535;29;20142;-76
2021/03/10 15:22:05;;;;;;;11.00;7.78;;;;;;;9.19;41.93;96761.75;4939252;29;20486;-76
2021/03/10 15:24:32;;;;;;;9.82;7.75;;;;;;;9.19;42.26;96758.34;4938935;29;20683;-77
2021/03/10 15:26:59;;;;;;;9.77;7.25;;;;;;;9.19;42.11;96756.53;4939315;29;20083;-77
2021/03/10 15:29:26;;;;;;;10.23;7.75;;;;;;;9.19;42.10;96750.53;4939328;29;20059;-75
2021/03/10 15:31:52;;;;;;;12.05;7.80;;;;;;;9.21;42.29;96756.38;4939517;29;20052;-76
2021/03/10 15:34:19;;;;;;;10.43;8.25;;;;;;;9.22;42.34;96758.00;4939695;29;20048;-78
2021/03/10 15:36:46;;;;;;;9.63;6.90;;;;;;;9.20;42.01;96746.94;4937827;29;20102;-78
2021/03/10 15:39:12;;;;;;;11.73;7.47;;;;;;;9.18;42.00;96741.09;4939321;29;20047;-76
2021/03/10 15:41:40;;;;;;;9.38;7.10;;;;;;;9.17;42.35;96731.69;4938809;29;20051;-76
2021/03/10 15:44:07;;;;;;;10.70;7.35;;;;;;;9.16;42.71;96735.25;4940050;29;20130;-78
2021/03/10 15:46:34;;;;;;;9.60;7.10;;;;;;;9.17;42.61;96729.06;4940007;29;20432;-77
2021/03/10 15:49:01;;;;;;;9.65;7.10;;;;;;;9.16;42.63;96725.66;4939941;29;20052;-77
2021/03/10 15:51:28;;;;;;;9.65;6.57;;;;;;;9.18;42.28;96715.06;4940283;29;20055;-77
2021/03/10 15:54:02;;;;;;;8.90;6.75;;;;;;;9.15;42.28;96712.81;4939709;29;20056;-78
2021/03/10 15:56:28;;;;;;;9.70;7.10;;;;;;;9.15;42.16;96710.22;4939941;29;20051;-77
2021/03/10 15:58:56;;;;;;;9.40;6.88;;;;;;;9.14;42.26;96711.19;4940945;29;20067;-79
2021/03/10 16:01:22;;;;;;;9.73;6.53;;;;;;;9.13;42.73;96706.97;4942505;29;20055;-77
2021/03/10 16:03:49;;;;;;;7.88;6.45;;;;;;;9.12;42.66;96707.94;4943686;29;20111;-78
2021/03/10 16:06:16;;;;;;;20.63;14.45;;;;;;;9.12;42.17;96707.94;4943964;29;20525;-79
2021/03/10 16:08:43;;;;;;;26.00;17.27;;;;;;;9.12;42.62;96713.97;4944029;29;20066;-76
2021/03/10 16:11:09;;;;;;;13.32;8.40;;;;;;;9.12;42.79;96713.13;4944540;29;20052;-78
2021/03/10 16:13:36;;;;;;;7.63;6.43;;;;;;;9.12;42.79;96715.75;4944449;29;20134;-77
2021/03/10 16:16:04;;;;;;;9.70;6.60;;;;;;;9.13;42.23;96720.78;4944251;29;20529;-80
2021/03/10 16:18:31;;;;;;;11.98;7.68;;;;;;;9.13;42.40;96710.38;4944354;29;20082;-78
2021/03/10 16:21:02;;;;;;;8.82;7.00;;;;;;;9.14;43.29;96705.97;4943460;29;20047;-77
2021/03/10 16:23:28;;;;;;;9.95;7.15;;;;;;;9.12;42.15;96707.94;4943571;29;20047;-78
2021/03/10 16:25:55;;;;;;;12.60;7.00;;;;;;;9.06;42.09;96699.84;4943342;29;20060;-77
2021/03/10 16:28:23;;;;;;;11.35;6.28;;;;;;;9.02;42.17;96703.75;4942604;29;20571;-78
2021/03/10 16:30:49;;;;;;;9.15;6.63;;;;;;;9.01;42.28;96690.94;4942594;29;20051;-77
2021/03/10 16:33:17;;;;;;;8.35;5.93;;;;;;;9.00;42.33;96692.69;4943093;29;20059;-78
2021/03/10 16:35:44;;;;;;;9.48;6.38;;;;;;;8.98;41.97;96689.44;4942230;29;20135;-77
2021/03/10 16:38:11;;;;;;;10.85;6.63;;;;;;;8.97;42.34;96684.44;4943020;29;20056;-77
2021/03/10 16:40:37;;;;;;;8.52;6.47;;;;;;;8.95;42.01;96682.00;4942317;29;20559;-77
2021/03/10 16:43:05;;;;;;;5.82;5.05;;;;;;;8.92;41.92;96682.34;4943160;29;20047;-78
2021/03/10 16:45:32;;;;;;;7.68;5.30;;;;;;;8.89;41.96;96676.66;4943116;29;20114;-81
2021/03/10 16:47:59;;;;;;;7.57;5.68;;;;;;;8.86;41.70;96672.59;4943204;29;20293;-79
2021/03/10 16:50:27;;;;;;;7.20;5.25;;;;;;;8.84;41.48;96669.38;4943961;29;20055;-77
2021/03/10 16:52:54;;;;;;;11.63;6.65;;;;;;;8.81;41.51;96677.50;4943571;29;20048;-79
2021/03/10 16:55:21;;;;;;;18.90;11.85;;;;;;;8.76;42.28;96682.41;4943456;29;20507;-78
2021/03/10 16:57:48;;;;;;;30.27;17.73;;;;;;;8.75;41.94;96691.19;4941932;29;20134;-79
2021/03/10 17:00:15;;;;;;;8.30;6.18;;;;;;;8.71;41.92;96695.91;4941673;29;20059;-76
2021/03/10 17:02:42;;;;;;;9.25;6.18;;;;;;;8.70;41.94;96693.47;4941531;29;20050;-78
2021/03/10 17:05:10;;;;;;;9.07;6.95;;;;;;;8.68;41.82;96690.22;4941529;29;20055;-78
2021/03/10 17:07:37;;;;;;;9.25;6.53;;;;;;;8.64;42.09;96690.56;4941139;29;20051;-77
2021/03/10 17:10:07;;;;;;;7.30;5.80;;;;;;;8.60;41.85;96694.47;4940717;29;20052;-76
2021/03/10 17:12:36;;;;;;;10.10;6.18;;;;;;;8.56;42.10;96690.56;4940825;29;20052;-77
2021/03/10 17:15:03;;;;;;;10.80;6.97;;;;;;;8.54;42.46;96686.53;4940312;29;20067;-79
2021/03/10 17:17:29;;;;;;;11.43;6.68;;;;;;;8.51;42.61;96695.47;4940075;29;20432;-77
2021/03/10 17:19:56;;;;;;;9.38;7.07;;;;;;;8.48;42.71;96694.97;4941661;29;20430;-78
2021/03/10 17:22:23;;;;;;;10.55;7.22;;;;;;;8.45;42.58;96701.34;4941257;29;20052;-78
2021/03/10 17:24:50;;;;;;;11.75;7.63;;;;;;;8.43;42.80;96692.88;4941127;29;20051;-78
2021/03/10 17:27:18;;;;;;;12.07;8.00;;;;;;;8.41;43.09;96694.84;4940934;29;20138;-78
2021/03/10 17:29:44;;;;;;;18.90;9.25;;;;;;;8.36;43.79;96691.91;4940978;29;20062;-76
2021/03/10 17:32:11;;;;;;;18.00;9.98;;;;;;;8.28;44.55;96689.31;4940165;29;20059;-79
2021/03/10 17:34:38;;;;;;;16.60;10.05;;;;;;;8.17;45.04;96693.06;4940502;29;20067;-77
2021/03/10 17:37:04;;;;;;;13.93;8.45;;;;;;;8.06;45.17;96689.00;4940557;29;20507;-78
2021/03/10 17:39:31;;;;;;;12.85;8.38;;;;;;;7.96;45.77;96691.78;4939874;29;20418;-78
2021/03/10 17:41:58;;;;;;;16.40;11.75;;;;;;;7.87;46.07;96686.72;4940270;29;20078;-79
2021/03/10 17:44:25;;;;;;;15.75;10.20;;;;;;;7.79;45.88;96677.97;4940036;29;20051;-78
2021/03/10 17:46:51;;;;;;;12.90;8.40;;;;;;;7.68;46.61;96678.31;4939214;29;20060;-75
2021/03/10 17:49:18;;;;;;;9.80;8.05;;;;;;;7.56;47.33;96674.38;4939906;29;20118;-78
2021/03/10 17:51:46;;;;;;;13.15;8.20;;;;;;;7.49;47.02;96676.00;4940965;29;20146;-76
2021/03/10 17:54:13;;;;;;;14.02;8.27;;;;;;;7.43;47.39;96675.69;4941856;29;20048;-77
2021/03/10 17:56:40;;;;;;;12.70;7.72;;;;;;;7.37;47.75;96681.50;4942354;29;20127;-76
2021/03/10 17:59:07;;;;;;;13.15;8.43;;;;;;;7.30;47.72;96677.09;4939866;29;20056;-76
2021/03/10 18:01:35;;;;;;;12.55;7.97;;;;;;;7.22;47.72;96673.53;4939658;29;20062;-77
2021/03/10 18:04:02;;;;;;;10.32;7.30;;;;;;;7.16;47.88;96674.16;4941275;29;20134;-76
2021/03/10 18:06:31;;;;;;;12.63;7.80;;;;;;;7.11;47.55;96673.81;4941374;29;20051;-76
2021/03/10 18:08:58;;;;;;;11.05;7.70;;;;;;;7.06;47.82;96676.06;4941488;29;20047;-77
2021/03/10 18:11:25;;;;;;;10.20;7.55;;;;;;;7.01;47.89;96673.94;4941301;29;20058;-77
2021/03/10 18:13:51;;;;;;;13.20;8.27;;;;;;;6.97;48.06;96674.41;4940477;29;20058;-77
2021/03/10 18:16:19;;;;;;;15.52;8.95;;;;;;;6.91;48.57;96672.44;4941194;29;20059;-78
2021/03/10 18:19:03;;;;;;;13.73;8.65;;;;;;;6.85;48.57;96665.31;4942374;29;20091;-77
2021/03/10 18:21:29;;;;;;;13.75;9.75;;;;;;;6.81;48.61;96662.22;4942824;29;20055;-78
2021/03/10 18:23:56;;;;;;;13.48;9.50;;;;;;;6.75;48.87;96660.25;4942083;29;20092;-76
2021/03/10 18:26:22;;;;;;;14.50;9.48;;;;;;;6.67;48.94;96652.41;4942111;29;20056;-77
2021/03/10 18:28:49;;;;;;;15.13;9.27;;;;;;;6.59;48.91;96666.97;4941357;29;20142;-79
2021/03/10 18:31:15;;;;;;;15.68;9.70;;;;;;;6.52;49.34;96657.41;4941159;29;20144;-79
2021/03/10 18:33:43;;;;;;;16.85;10.48;;;;;;;6.43;49.10;96663.50;4941219;29;20051;-76
2021/03/10 18:36:11;;;;;;;18.10;11.73;;;;;;;6.38;49.67;96656.19;4941387;29;20055;-76
2021/03/10 18:38:38;;;;;;;13.77;9.88;;;;;;;6.33;49.40;96654.06;4939872;29;20056;-77
2021/03/10 18:41:04;;;;;;;14.63;9.63;;;;;;;6.25;49.72;96654.00;4940671;29;20498;-76
2021/03/10 18:43:33;;;;;;;14.55;9.50;;;;;;;6.19;49.53;96655.44;4940054;29;20057;-76
2021/03/10 18:45:59;;;;;;;16.48;10.25;;;;;;;6.13;50.05;96656.03;4938270;29;20063;-77
2021/03/10 18:48:26;;;;;;;13.15;8.98;;;;;;;6.09;50.24;96653.91;4940057;29;20103;-76
2021/03/10 18:50:54;;;;;;;15.52;9.68;;;;;;;6.10;50.09;96653.78;4940066;29;20103;-78
2021/03/10 18:53:21;;;;;;;14.75;9.98;;;;;;;6.11;50.35;96649.41;4940598;29;20059;-77
2021/03/10 18:55:48;;;;;;;16.48;9.63;;;;;;;6.07;50.21;96642.91;4940234;29;20459;-76
2021/03/10 18:58:15;;;;;;;20.80;13.27;;;;;;;6.04;50.32;96646.59;4940857;29;20055;-79
2021/03/10 19:00:42;;;;;;;17.15;10.85;;;;;;;6.01;50.33;96654.66;4940771;29;20059;-76
2021/03/10 19:03:09;;;;;;;14.10;10.27;;;;;;;5.99;50.57;96656.59;4940264;29;20059;-75
2021/03/10 19:05:37;;;;;;;15.82;10.52;;;;;;;5.94;50.92;96651.88;4940370;29;20048;-78
2021/03/10 19:08:07;;;;;;;12.48;8.82;;;;;;;5.87;50.87;96644.84;4936715;29;20052;-77
2021/03/10 19:10:35;;;;;;;14.70;10.25;;;;;;;5.82;51.43;96649.66;4933578;29;20494;-76
2021/03/10 19:13:21;;;;;;;14.20;9.15;;;;;;;5.80;51.27;96641.22;4938335;29;20051;-77
2021/03/10 19:15:48;;;;;;;16.38;10.05;;;;;;;5.77;51.27;96634.56;4938365;29;20040;-76
2021/03/10 19:18:15;;;;;;;13.05;9.13;;;;;;;5.76;51.78;96644.09;4938947;29;20479;-77
2021/03/10 19:20:42;;;;;;;19.75;10.90;;;;;;;5.73;51.46;96639.25;4938863;29;20052;-77
2021/03/10 19:23:10;;;;;;;16.52;10.85;;;;;;;5.68;51.85;96636.28;4938645;29;20051;-76
2021/03/10 19:25:36;;;;;;;20.52;13.90;;;;;;;5.59;52.15;96624.22;4938949;29;20058;-75
2021/03/10 19:28:05;;;;;;;23.48;13.48;;;;;;;5.54;52.20;96627.28;4938207;29;20054;-76
2021/03/10 19:30:32;;;;;;;22.15;15.15;;;;;;;5.51;52.60;96627.59;4938279;29;20059;-80
2021/03/10 19:32:59;;;;;;;22.73;15.23;;;;;;;5.49;52.46;96616.56;4938242;29;20087;-76
2021/03/10 19:35:26;;;;;;;25.50;16.38;;;;;;;5.47;52.67;96622.84;4939529;29;20064;-77
2021/03/10 19:37:53;;;;;;;26.20;17.15;;;;;;;5.46;52.90;96616.84;4941798;29;20048;-77
2021/03/10 19:40:22;;;;;;;24.23;15.52;;;;;;;5.49;52.68;96620.94;4943290;29;20047;-76
2021/03/10 19:42:49;;;;;;;24.10;16.80;;;;;;;5.51;52.82;96618.97;4942541;29;20086;-76
2021/03/10 19:45:16;;;;;;;22.75;13.98;;;;;;;5.49;52.74;96613.19;4942597;29;20055;-75
2021/03/10 19:47:42;;;;;;;17.85;12.70;;;;;;;5.45;52.77;96609.25;4942587;29;20060;-76
2021/03/10 19:50:12;;;;;;;19.30;13.98;;;;;;;5.44;52.61;96615.38;4942712;29;20098;-80
2021/03/10 19:52:39;;;;;;;17.73;12.52;;;;;;;5.42;52.64;96609.53;4941713;29;20047;-76
2021/03/10 19:55:07;;;;;;;19.92;12.73;;;;;;;5.43;52.92;96611.97;4941598;29;20059;-78
2021/03/10 19:57:34;;;;;;;19.55;12.93;;;;;;;5.46;52.93;96608.28;4941084;29;20534;-76
2021/03/10 20:00:01;;;;;;;18.48;12.68;;;;;;;5.45;53.32;96610.06;4941233;29;20055;-76
2021/03/10 20:02:28;;;;;;;20.25;14.10;;;;;;;5.43;53.10;96603.41;4942746;29;20051;-78
2021/03/10 20:04:54;;;;;;;21.70;13.63;;;;;;;5.40;53.49;96606.28;4943171;29;20048;-75
2021/03/10 20:07:21;;;;;;;22.60;13.93;;;;;;;5.34;53.25;96611.09;4941981;29;20048;-77
2021/03/10 20:09:47;;;;;;;22.27;14.73;;;;;;;5.31;53.53;96601.06;4940997;29;20078;-77
2021/03/10 20:12:14;;;;;;;25.05;15.13;;;;;;;5.31;53.71;96603.66;4941924;29;20070;-77
2021/03/10 20:14:41;;;;;;;31.73;15.13;;;;;;;5.31;53.72;96595.91;4942140;29;20044;-77
2021/03/10 20:17:08;;;;;;;18.60;12.02;;;;;;;5.32;53.82;96600.09;4942203;29;20062;-77
2021/03/10 20:19:35;;;;;;;17.77;11.85;;;;;;;5.29;53.87;96595.22;4941407;29;20063;-77
2021/03/10 20:22:01;;;;;;;20.00;12.35;;;;;;;5.30;53.98;96585.69;4940957;29;20055;-76
2021/03/10 20:24:28;;;;;;;15.88;11.18;;;;;;;5.31;53.66;96574.38;4940298;29;20074;-76
2021/03/10 20:26:54;;;;;;;21.25;12.30;;;;;;;5.30;53.50;96568.38;4942116;29;20419;-76
2021/03/10 20:29:21;;;;;;;19.30;11.15;;;;;;;5.27;53.74;96558.34;4942625;29;20439;-76
2021/03/10 20:31:48;;;;;;;21.90;12.32;;;;;;;5.23;53.53;96559.59;4952725;29;20070;-76
2021/03/10 20:34:15;;;;;;;17.05;11.02;;;;;;;5.19;53.46;96547.94;4962998;28;20086;-75
2021/03/10 20:36:42;;;;;;;14.25;10.57;;;;;;;5.19;53.81;96537.59;4961575;29;20051;-76
2021/03/10 20:39:08;;;;;;;21.88;12.52;;;;;;;5.20;53.53;96544.38;4961700;29;20581;-76
2021/03/10 20:41:35;;;;;;;19.10;11.65;;;;;;;5.17;53.46;96534.34;4944714;29;20063;-76
2021/03/10 20:44:03;;;;;;;18.40;11.02;;;;;;;5.16;53.58;96530.16;4943106;29;20142;-76
2021/03/10 20:46:29;;;;;;;16.85;10.95;;;;;;;5.12;53.14;96521.06;4942835;29;20052;-76
2021/03/10 20:48:57;;;;;;;18.23;12.18;;;;;;;5.09;53.61;96518.75;4942362;29;20102;-77
2021/03/10 20:51:24;;;;;;;18.55;11.57;;;;;;;5.04;53.60;96515.81;4942759;29;20059;-76
2021/03/10 20:53:51;;;;;;;16.05;11.20;;;;;;;4.98;53.67;96508.66;4942615;29;20503;-76
2021/03/10 20:56:17;;;;;;;18.58;10.48;;;;;;;4.94;53.61;96508.97;4941364;29;20100;-77
2021/03/10 20:58:44;;;;;;;17.25;10.68;;;;;;;4.93;53.66;96507.31;4942646;29;20063;-78
2021/03/10 21:01:11;;;;;;;18.83;11.05;;;;;;;4.91;53.53;96501.47;4941185;29;20423;-77
2021/03/10 21:03:38;;;;;;;21.15;11.18;;;;;;;4.90;53.58;96494.69;4942342;29;20116;-78
2021/03/10 21:06:06;;;;;;;15.80;9.57;;;;;;;4.92;53.55;96499.72;4941571;29;20063;-78
2021/03/10 21:08:32;;;;;;;14.93;9.45;;;;;;;4.95;53.29;96489.88;4942892;29;20058;-77
2021/03/10 21:10:59;;;;;;;17.58;10.30;;;;;;;4.95;53.51;96491.66;4942658;29;20059;-78
2021/03/10 21:13:26;;;;;;;14.68;9.77;;;;;;;4.97;53.37;96486.34;4922108;29;20064;-80
2021/03/10 21:15:53;;;;;;;15.82;9.82;;;;;;;4.99;53.17;96494.78;4935352;29;20043;-79
2021/03/10 21:18:20;;;;;;;16.50;11.20;;;;;;;4.98;53.58;96487.97;4942221;29;20053;-76
2021/03/10 21:20:46;;;;;;;18.98;10.70;;;;;;;4.99;53.52;96481.84;4941306;29;20427;-77
2021/03/10 21:23:19;;;;;;;17.50;10.10;;;;;;;5.01;53.43;96482.47;4939226;29;20058;-76
2021/03/10 21:25:45;;;;;;;18.38;10.65;;;;;;;5.05;53.51;96483.81;4940977;29;20052;-78
2021/03/10 21:28:13;;;;;;;17.70;10.20;;;;;;;5.08;53.17;96478.38;4939793;29;20051;-78
2021/03/10 21:30:40;;;;;;;23.63;12.30;;;;;;;5.08;53.74;96478.38;4940523;29;20047;-78
2021/03/10 21:33:07;;;;;;;20.35;11.15;;;;;;;5.09;53.72;96474.81;4941413;29;20055;-77
2021/03/10 21:35:34;;;;;;;20.13;12.00;;;;;;;5.11;53.75;96476.28;4941006;29;20051;-77
2021/03/10 21:38:00;;;;;;;19.35;11.73;;;;;;;5.14;53.80;96472.59;4942866;29;20052;-79
2021/03/10 21:40:28;;;;;;;21.35;12.13;;;;;;;5.15;53.66;96463.88;4941759;29;20058;-78
2021/03/10 21:42:54;;;;;;;19.83;10.32;;;;;;;5.16;53.91;96455.97;4941812;29;20059;-78
2021/03/10 21:45:21;;;;;;;18.90;11.55;;;;;;;5.18;53.90;96455.78;4942463;29;20510;-80
2021/03/10 21:47:47;;;;;;;16.38;11.02;;;;;;;5.21;53.79;96463.25;4943879;29;20079;-78
2021/03/10 21:50:14;;;;;;;19.98;12.25;;;;;;;5.22;53.78;96457.13;4942285;29;20055;-78
2021/03/10 21:52:41;;;;;;;21.08;11.57;;;;;;;5.23;53.50;96453.59;4942069;29;20052;-77
2021/03/10 21:55:09;;;;;;;21.83;12.50;;;;;;;5.22;53.38;96444.19;4941499;29;20055;-76
2021/03/10 21:57:37;;;;;;;19.25;11.95;;;;;;;5.24;53.44;96455.19;4941654;29;20062;-78
2021/03/10 22:00:06;;;;;;;20.67;11.45;;;;;;;5.24;53.21;96460.38;4941642;29;20058;-78
2021/03/10 22:02:33;;;;;;;20.27;11.63;;;;;;;5.26;53.64;96450.69;4942805;29;20052;-77
2021/03/10 22:05:00;;;;;;;20.35;13.02;;;;;;;5.26;53.68;96437.75;4940395;29;20099;-78
2021/03/10 22:07:27;;;;;;;22.55;12.07;;;;;;;5.23;53.71;96430.31;4942409;29;20051;-80
2021/03/10 22:09:53;;;;;;;17.70;11.77;;;;;;;5.23;53.84;96434.66;4942770;29;20503;-79
2021/03/10 22:12:20;;;;;;;23.83;12.05;;;;;;;5.21;53.82;96421.09;4942216;29;20051;-78
2021/03/10 22:14:48;;;;;;;22.02;12.15;;;;;;;5.20;53.94;96415.06;4941963;29;20058;-77
2021/03/10 22:17:16;;;;;;;22.10;11.98;;;;;;;5.25;54.04;96417.22;4941846;29;20078;-78
2021/03/10 22:19:43;;;;;;;23.05;11.75;;;;;;;5.27;53.70;96410.09;4941681;29;20071;-77
2021/03/10 22:22:10;;;;;;;25.38;14.18;;;;;;;5.27;53.51;96404.94;4942645;29;20059;-79
2021/03/10 22:24:38;;;;;;;21.48;12.95;;;;;;;5.26;53.75;96398.16;4941590;29;20052;-77
2021/03/10 22:27:05;;;;;;;19.30;11.82;;;;;;;5.28;53.83;96396.22;4941798;29;20059;-76
2021/03/10 22:29:32;;;;;;;19.40;11.93;;;;;;;5.30;53.58;96399.47;4942389;29;20047;-78
2021/03/10 22:32:00;;;;;;;23.00;12.32;;;;;;;5.31;53.91;96386.41;4941793;29;20139;-78
2021/03/10 22:34:27;;;;;;;21.35;13.27;;;;;;;5.33;53.34;96386.22;4942575;29;20139;-76
2021/03/10 22:36:54;;;;;;;18.25;12.00;;;;;;;5.34;53.48;96383.50;4942497;29;20051;-78
2021/03/10 22:39:20;;;;;;;23.08;13.02;;;;;;;5.35;53.59;96377.34;4941923;29;20059;-78
2021/03/10 22:41:47;;;;;;;20.10;12.32;;;;;;;5.36;53.57;96371.22;4941562;29;20055;-77
2021/03/10 22:44:13;;;;;;;27.48;12.70;;;;;;;5.39;53.49;96371.88;4942197;29;20143;-78
2021/03/10 22:46:40;;;;;;;19.08;12.38;;;;;;;5.40;53.35;96373.47;4941402;29;20062;-75